Time;durP1;ratioP1;P1;durP2;ratioP2;P2;SDS_P1;SDS_P2;PMS_P1;PMS_P2;Temp;Humidity;BMP_temperature;BMP_pressure;BME280_temperature;BME280_humidity;BME280_pressure;Samples;Min_cycle;Max_cycle;Signal;HPM_P1;HPM_P2
2022/03/06 00:00:16;;;;;;;31.15;14.00;;;;;;;;;;4950354;28;20924;-65
2022/03/06 00:02:43;;;;;;;33.38;13.80;;;;;;;;;;4949994;28;20051;-65
2022/03/06 00:05:10;;;;;;;28.05;13.18;;;;;;;;;;4950867;28;20051;-65
2022/03/06 00:07:37;;;;;;;30.05;13.15;;;;;;;;;;4950898;28;20074;-66
2022/03/06 00:10:04;;;;;;;29.98;12.70;;;;;;;;;;4950613;28;20048;-65
2022/03/06 00:12:36;;;;;;;29.83;13.88;;;;;;;;;;4950202;28;20159;-65
2022/03/06 00:15:03;;;;;;;29.13;13.80;;;;;;;;;;4950631;28;20051;-65
2022/03/06 00:17:29;;;;;;;30.80;12.65;;;;;;;;;;4950060;28;20055;-65
2022/03/06 00:19:56;;;;;;;27.58;11.88;;;;;;;;;;4949808;28;20095;-65
2022/03/06 00:22:22;;;;;;;28.35;12.63;;;;;;;;;;4949953;28;20051;-65
2022/03/06 00:24:48;;;;;;;27.98;12.43;;;;;;;;;;4950020;28;20387;-65
2022/03/06 00:27:15;;;;;;;26.70;12.15;;;;;;;;;;4950339;28;20074;-65
2022/03/06 00:29:41;;;;;;;28.27;12.13;;;;;;;;;;4949626;28;20502;-66
2022/03/06 00:32:07;;;;;;;26.35;12.55;;;;;;;;;;4950516;28;20163;-65
2022/03/06 00:34:34;;;;;;;28.10;11.98;;;;;;;;;;4949683;28;20088;-65
2022/03/06 00:37:00;;;;;;;27.25;11.43;;;;;;;;;;4949542;28;20148;-65
2022/03/06 00:39:26;;;;;;;25.30;11.13;;;;;;;;;;4949910;28;20059;-65
2022/03/06 00:41:53;;;;;;;26.42;12.05;;;;;;;;;;4949851;28;20127;-65
2022/03/06 00:44:21;;;;;;;23.15;11.32;;;;;;;;;;4949393;28;20060;-65
2022/03/06 00:46:47;;;;;;;24.92;11.65;;;;;;;;;;4949201;28;20063;-65
2022/03/06 00:49:14;;;;;;;28.17;12.20;;;;;;;;;;4949034;28;20088;-65
2022/03/06 00:51:40;;;;;;;24.38;12.02;;;;;;;;;;4949017;28;20059;-65
2022/03/06 00:54:06;;;;;;;25.33;12.25;;;;;;;;;;4949324;28;20138;-65
2022/03/06 00:56:33;;;;;;;27.00;11.70;;;;;;;;;;4949770;28;20194;-65
2022/03/06 00:58:59;;;;;;;22.63;11.60;;;;;;;;;;4949255;28;20059;-65
2022/03/06 01:01:25;;;;;;;25.92;10.40;;;;;;;;;;4949426;28;20056;-65
2022/03/06 01:03:52;;;;;;;24.05;11.60;;;;;;;;;;4948848;28;20055;-65
2022/03/06 01:06:18;;;;;;;27.40;11.40;;;;;;;;;;4949142;28;20067;-65
2022/03/06 01:08:44;;;;;;;25.35;11.30;;;;;;;;;;4948331;28;20521;-65
2022/03/06 01:11:11;;;;;;;24.05;11.35;;;;;;;;;;4949064;28;20419;-65
2022/03/06 01:13:37;;;;;;;29.30;11.57;;;;;;;;;;4949253;28;20114;-65
2022/03/06 01:16:04;;;;;;;20.13;9.98;;;;;;;;;;4949107;28;20062;-65
2022/03/06 01:18:31;;;;;;;22.67;10.88;;;;;;;;;;4948472;28;20064;-65
2022/03/06 01:20:57;;;;;;;23.92;11.85;;;;;;;;;;4948836;28;20056;-65
2022/03/06 01:23:24;;;;;;;19.52;9.40;;;;;;;;;;4948754;28;20062;-65
2022/03/06 01:25:50;;;;;;;20.95;9.77;;;;;;;;;;4948557;28;20060;-65
2022/03/06 01:28:17;;;;;;;20.13;10.20;;;;;;;;;;4948746;28;20106;-65
2022/03/06 01:30:43;;;;;;;19.95;9.43;;;;;;;;;;4948514;28;20063;-65
2022/03/06 01:33:09;;;;;;;20.05;10.20;;;;;;;;;;4948648;28;20056;-65
2022/03/06 01:35:36;;;;;;;17.35;8.60;;;;;;;;;;4948467;28;20052;-65
2022/03/06 01:38:02;;;;;;;21.45;9.85;;;;;;;;;;4948857;28;20066;-65
2022/03/06 01:40:29;;;;;;;18.70;9.07;;;;;;;;;;4949044;28;20058;-65
2022/03/06 01:42:55;;;;;;;18.38;9.68;;;;;;;;;;4948354;28;20147;-65
2022/03/06 01:45:23;;;;;;;20.65;9.20;;;;;;;;;;4948395;28;20066;-65
2022/03/06 01:47:51;;;;;;;18.77;9.10;;;;;;;;;;4948246;28;20052;-65
2022/03/06 01:50:25;;;;;;;23.23;9.50;;;;;;;;;;4948633;28;20062;-66
2022/03/06 01:52:52;;;;;;;21.08;9.63;;;;;;;;;;4948747;28;20326;-66
2022/03/06 01:55:19;;;;;;;19.10;9.68;;;;;;;;;;4948084;28;20138;-64
2022/03/06 01:57:46;;;;;;;18.67;9.82;;;;;;;;;;4948214;28;20080;-64
2022/03/06 02:00:14;;;;;;;19.73;9.52;;;;;;;;;;4948172;28;20059;-65
2022/03/06 02:02:40;;;;;;;18.85;10.05;;;;;;;;;;4948300;28;20056;-65
2022/03/06 02:05:07;;;;;;;24.25;10.52;;;;;;;;;;4948676;28;20150;-65
2022/03/06 02:07:34;;;;;;;18.88;8.88;;;;;;;;;;4947798;28;20066;-64
2022/03/06 02:10:00;;;;;;;19.13;9.52;;;;;;;;;;4948435;28;20050;-64
2022/03/06 02:12:27;;;;;;;17.73;9.18;;;;;;;;;;4948016;28;20062;-64
2022/03/06 02:14:54;;;;;;;18.85;9.38;;;;;;;;;;4948137;28;20056;-64
2022/03/06 02:17:21;;;;;;;19.40;8.57;;;;;;;;;;4948313;28;20179;-66
2022/03/06 02:19:50;;;;;;;22.35;9.50;;;;;;;;;;4948919;28;20163;-65
2022/03/06 02:22:17;;;;;;;18.65;9.52;;;;;;;;;;4951805;28;20051;-65
2022/03/06 02:24:43;;;;;;;24.33;11.48;;;;;;;;;;4951421;28;21511;-65
2022/03/06 02:27:10;;;;;;;19.58;9.20;;;;;;;;;;4951270;28;20047;-65
2022/03/06 02:29:39;;;;;;;17.63;8.20;;;;;;;;;;4951665;28;20052;-65
2022/03/06 02:32:09;;;;;;;16.85;9.52;;;;;;;;;;4951450;28;20070;-66
2022/03/06 02:34:40;;;;;;;20.63;9.32;;;;;;;;;;4950666;28;20062;-65
2022/03/06 02:37:06;;;;;;;20.95;10.27;;;;;;;;;;4951266;28;20066;-66
2022/03/06 02:39:32;;;;;;;21.17;10.27;;;;;;;;;;4951056;28;20064;-65
2022/03/06 02:42:01;;;;;;;22.52;10.07;;;;;;;;;;4952466;28;20099;-65
2022/03/06 02:44:28;;;;;;;23.08;10.68;;;;;;;;;;4951290;28;20059;-68
2022/03/06 02:46:54;;;;;;;20.80;10.50;;;;;;;;;;4950581;28;20055;-66
2022/03/06 02:49:21;;;;;;;18.30;9.43;;;;;;;;;;4950788;28;20147;-67
2022/03/06 02:51:47;;;;;;;20.98;10.02;;;;;;;;;;4951125;28;20915;-66
2022/03/06 02:54:17;;;;;;;19.98;9.55;;;;;;;;;;4950715;28;20051;-65
2022/03/06 02:56:44;;;;;;;22.58;9.95;;;;;;;;;;4951238;28;20060;-65
2022/03/06 02:59:11;;;;;;;24.25;11.20;;;;;;;;;;4950524;28;20055;-65
2022/03/06 03:01:43;;;;;;;22.48;10.73;;;;;;;;;;4951125;28;20055;-65
2022/03/06 03:04:10;;;;;;;19.98;10.05;;;;;;;;;;4951349;28;20155;-65
2022/03/06 03:06:38;;;;;;;21.80;11.18;;;;;;;;;;4950992;28;20154;-65
2022/03/06 03:09:04;;;;;;;21.05;11.00;;;;;;;;;;4950906;28;20172;-65
2022/03/06 03:11:31;;;;;;;20.13;10.18;;;;;;;;;;4950473;28;20087;-65
2022/03/06 03:13:58;;;;;;;22.88;11.00;;;;;;;;;;4950259;28;20056;-65
2022/03/06 03:16:25;;;;;;;20.70;11.00;;;;;;;;;;4949981;28;20056;-65
2022/03/06 03:18:51;;;;;;;21.55;10.70;;;;;;;;;;4950144;28;20059;-64
2022/03/06 03:21:18;;;;;;;24.40;11.40;;;;;;;;;;4950689;28;20051;-64
2022/03/06 03:23:44;;;;;;;20.38;10.73;;;;;;;;;;4951327;28;20079;-64
2022/03/06 03:26:11;;;;;;;25.65;11.70;;;;;;;;;;4950555;28;20078;-64
2022/03/06 03:28:37;;;;;;;25.42;12.23;;;;;;;;;;4950223;28;20054;-65
2022/03/06 03:31:03;;;;;;;23.00;12.30;;;;;;;;;;4950312;28;20525;-65
2022/03/06 03:33:30;;;;;;;23.58;11.15;;;;;;;;;;4949735;28;20147;-65
2022/03/06 03:35:56;;;;;;;27.40;13.82;;;;;;;;;;4949578;28;20063;-65
2022/03/06 03:38:22;;;;;;;25.20;13.55;;;;;;;;;;4950446;28;20139;-65
2022/03/06 03:40:49;;;;;;;27.30;12.20;;;;;;;;;;4949870;28;20058;-65
2022/03/06 03:43:15;;;;;;;25.48;12.73;;;;;;;;;;4950127;28;20506;-65
2022/03/06 03:45:42;;;;;;;32.85;13.18;;;;;;;;;;4950397;28;20062;-65
2022/03/06 03:48:08;;;;;;;26.38;14.00;;;;;;;;;;4950402;28;20088;-64
2022/03/06 03:50:34;;;;;;;22.35;12.80;;;;;;;;;;4950150;28;20056;-64
2022/03/06 03:53:00;;;;;;;26.42;13.40;;;;;;;;;;4949623;28;20058;-64
2022/03/06 03:55:27;;;;;;;26.88;13.50;;;;;;;;;;4950103;28;20060;-64
2022/03/06 03:57:53;;;;;;;24.92;13.43;;;;;;;;;;4950144;28;20059;-64
2022/03/06 04:00:19;;;;;;;26.15;13.55;;;;;;;;;;4949513;28;20086;-64
2022/03/06 04:02:46;;;;;;;23.77;13.48;;;;;;;;;;4950338;28;20139;-65
2022/03/06 04:05:12;;;;;;;26.73;14.38;;;;;;;;;;4950180;28;20048;-65
2022/03/06 04:07:38;;;;;;;27.35;14.55;;;;;;;;;;4949866;28;20047;-65
2022/03/06 04:10:05;;;;;;;25.48;11.85;;;;;;;;;;4949894;28;20498;-65
2022/03/06 04:12:31;;;;;;;25.45;13.95;;;;;;;;;;4949930;28;20066;-65
2022/03/06 04:14:57;;;;;;;27.33;13.90;;;;;;;;;;4949760;28;20051;-64
2022/03/06 04:17:24;;;;;;;24.58;14.10;;;;;;;;;;4950013;28;20059;-65
2022/03/06 04:19:50;;;;;;;24.45;12.55;;;;;;;;;;4948994;28;20060;-65
2022/03/06 04:22:16;;;;;;;23.42;13.82;;;;;;;;;;4950194;28;20086;-64
2022/03/06 04:24:43;;;;;;;23.27;13.07;;;;;;;;;;4950091;28;20059;-64
2022/03/06 04:27:09;;;;;;;28.23;14.82;;;;;;;;;;4949214;28;20143;-64
2022/03/06 04:29:35;;;;;;;24.55;13.02;;;;;;;;;;4950060;28;20060;-65
2022/03/06 04:32:03;;;;;;;25.98;13.75;;;;;;;;;;4950298;28;20051;-65
2022/03/06 04:34:29;;;;;;;26.40;14.10;;;;;;;;;;4949692;28;20545;-65
2022/03/06 04:36:56;;;;;;;25.65;13.80;;;;;;;;;;4949683;28;20135;-65
2022/03/06 04:39:22;;;;;;;21.83;12.88;;;;;;;;;;4949920;28;20055;-65
2022/03/06 04:41:48;;;;;;;23.38;13.68;;;;;;;;;;4949563;28;20062;-65
2022/03/06 04:44:14;;;;;;;24.15;13.32;;;;;;;;;;4949310;28;20074;-65
2022/03/06 04:46:41;;;;;;;29.42;15.70;;;;;;;;;;4949710;28;20082;-65
2022/03/06 04:49:07;;;;;;;26.75;14.00;;;;;;;;;;4949286;28;20059;-65
2022/03/06 04:51:34;;;;;;;25.55;13.52;;;;;;;;;;4949989;28;20497;-65
2022/03/06 04:54:00;;;;;;;25.83;14.23;;;;;;;;;;4949990;28;20162;-63
2022/03/06 04:56:27;;;;;;;27.42;14.07;;;;;;;;;;4948910;28;20148;-65
2022/03/06 04:58:53;;;;;;;27.88;16.02;;;;;;;;;;4949541;28;20118;-64
2022/03/06 05:01:19;;;;;;;27.52;15.07;;;;;;;;;;4949542;28;20530;-64
2022/03/06 05:03:49;;;;;;;28.42;15.00;;;;;;;;;;4949086;28;20056;-64
2022/03/06 05:06:15;;;;;;;25.65;14.35;;;;;;;;;;4949494;28;20135;-64
2022/03/06 05:08:42;;;;;;;26.80;13.55;;;;;;;;;;4948482;28;20058;-64
2022/03/06 05:11:08;;;;;;;24.65;13.30;;;;;;;;;;4949814;28;20064;-64
2022/03/06 05:13:34;;;;;;;25.80;14.02;;;;;;;;;;4949179;28;20063;-64
2022/03/06 05:16:01;;;;;;;26.27;14.05;;;;;;;;;;4949071;28;20051;-64
2022/03/06 05:18:27;;;;;;;25.90;14.45;;;;;;;;;;4949073;28;20090;-64
2022/03/06 05:20:53;;;;;;;30.05;15.20;;;;;;;;;;4948644;28;20063;-64
2022/03/06 05:23:20;;;;;;;26.20;14.55;;;;;;;;;;4948938;28;20083;-64
2022/03/06 05:25:48;;;;;;;27.13;15.07;;;;;;;;;;4948327;28;20134;-64
2022/03/06 05:28:14;;;;;;;25.63;14.52;;;;;;;;;;4949301;28;20062;-64
2022/03/06 05:30:41;;;;;;;27.20;14.00;;;;;;;;;;4948545;28;20143;-64
2022/03/06 05:33:07;;;;;;;25.73;14.52;;;;;;;;;;4949726;28;20138;-64
2022/03/06 05:35:33;;;;;;;23.02;13.15;;;;;;;;;;4948716;28;20074;-64
2022/03/06 05:38:00;;;;;;;26.80;13.88;;;;;;;;;;4948374;28;20407;-64
2022/03/06 05:40:26;;;;;;;24.27;13.40;;;;;;;;;;4949070;28;20090;-64
2022/03/06 05:42:52;;;;;;;26.58;13.48;;;;;;;;;;4949024;28;20062;-64
2022/03/06 05:45:19;;;;;;;27.05;14.02;;;;;;;;;;4949424;28;20044;-64
2022/03/06 05:47:45;;;;;;;23.00;12.38;;;;;;;;;;4948651;28;20060;-64
2022/03/06 05:50:11;;;;;;;25.35;13.82;;;;;;;;;;4949554;28;20593;-64
2022/03/06 05:52:39;;;;;;;26.38;13.52;;;;;;;;;;4948726;28;20143;-64
2022/03/06 05:55:06;;;;;;;21.67;12.55;;;;;;;;;;4949811;28;20062;-64
2022/03/06 05:57:32;;;;;;;23.17;13.30;;;;;;;;;;4952549;28;20502;-64
2022/03/06 05:59:58;;;;;;;23.30;13.02;;;;;;;;;;4952355;28;20083;-64
2022/03/06 06:02:25;;;;;;;23.45;13.20;;;;;;;;;;4952014;28;20518;-64
2022/03/06 06:04:52;;;;;;;24.75;12.60;;;;;;;;;;4952483;28;20055;-64
2022/03/06 06:07:18;;;;;;;23.23;12.38;;;;;;;;;;4952152;28;20139;-64
2022/03/06 06:09:44;;;;;;;25.13;12.13;;;;;;;;;;4952205;28;20531;-64
2022/03/06 06:12:10;;;;;;;22.48;12.63;;;;;;;;;;4951727;28;20047;-64
2022/03/06 06:14:37;;;;;;;21.95;11.50;;;;;;;;;;4952148;28;20515;-64
2022/03/06 06:17:03;;;;;;;22.27;12.52;;;;;;;;;;4951931;28;20051;-64
2022/03/06 06:19:30;;;;;;;25.98;12.50;;;;;;;;;;4951963;28;20435;-64
2022/03/06 06:21:56;;;;;;;23.65;12.23;;;;;;;;;;4951906;28;20102;-64
2022/03/06 06:24:22;;;;;;;23.15;12.82;;;;;;;;;;4951525;28;20138;-64
2022/03/06 06:26:51;;;;;;;24.05;11.02;;;;;;;;;;4951780;28;20054;-64
2022/03/06 06:29:18;;;;;;;24.88;12.30;;;;;;;;;;4952251;28;20139;-64
2022/03/06 06:31:44;;;;;;;23.38;11.38;;;;;;;;;;4951301;28;20138;-64
2022/03/06 06:34:11;;;;;;;21.23;11.93;;;;;;;;;;4951663;28;20055;-64
2022/03/06 06:36:37;;;;;;;20.27;11.00;;;;;;;;;;4951538;28;20062;-64
2022/03/06 06:39:03;;;;;;;23.30;12.02;;;;;;;;;;4952155;28;20058;-64
2022/03/06 06:41:29;;;;;;;19.73;10.27;;;;;;;;;;4951842;28;20598;-64
2022/03/06 06:43:56;;;;;;;22.83;11.85;;;;;;;;;;4951668;28;20060;-64
2022/03/06 06:46:22;;;;;;;23.35;12.00;;;;;;;;;;4951333;28;20087;-64
2022/03/06 06:48:49;;;;;;;27.63;14.63;;;;;;;;;;4951329;28;20064;-64
2022/03/06 06:51:15;;;;;;;21.83;11.45;;;;;;;;;;4951021;28;20062;-64
2022/03/06 06:53:41;;;;;;;20.20;11.07;;;;;;;;;;4933646;28;20669;-64
2022/03/06 06:56:08;;;;;;;17.52;10.20;;;;;;;;;;4950616;28;20060;-64
2022/03/06 06:58:34;;;;;;;27.73;13.35;;;;;;;;;;4950736;28;20150;-64
2022/03/06 07:01:00;;;;;;;21.70;12.18;;;;;;;;;;4951720;28;20052;-64
2022/03/06 07:03:27;;;;;;;21.02;11.70;;;;;;;;;;4950956;28;20115;-64
2022/03/06 07:05:55;;;;;;;18.75;9.82;;;;;;;;;;4950828;28;20060;-64
2022/03/06 07:08:22;;;;;;;28.95;14.63;;;;;;;;;;4949682;28;20055;-64
2022/03/06 07:10:49;;;;;;;20.75;10.75;;;;;;;;;;4951141;28;20062;-64
2022/03/06 07:13:15;;;;;;;22.90;11.73;;;;;;;;;;4950694;28;20060;-64
2022/03/06 07:15:41;;;;;;;15.18;8.77;;;;;;;;;;4951139;28;20066;-64
2022/03/06 07:18:08;;;;;;;18.02;9.57;;;;;;;;;;4950658;28;20107;-64
2022/03/06 07:20:34;;;;;;;18.65;10.27;;;;;;;;;;4949635;28;20086;-64
2022/03/06 07:23:04;;;;;;;17.77;9.73;;;;;;;;;;4951167;28;20537;-64
2022/03/06 07:25:31;;;;;;;18.17;9.98;;;;;;;;;;4950771;28;20144;-64
2022/03/06 07:27:57;;;;;;;17.20;9.45;;;;;;;;;;4951026;28;20056;-64
2022/03/06 07:30:24;;;;;;;17.08;8.40;;;;;;;;;;4950907;28;20486;-64
2022/03/06 07:32:51;;;;;;;15.93;9.20;;;;;;;;;;4950080;28;20142;-64
2022/03/06 07:35:18;;;;;;;20.13;10.23;;;;;;;;;;4950261;28;20066;-64
2022/03/06 07:37:45;;;;;;;15.45;9.20;;;;;;;;;;4949887;28;20074;-64
2022/03/06 07:40:12;;;;;;;17.17;9.32;;;;;;;;;;4950521;28;20056;-64
2022/03/06 07:42:39;;;;;;;14.57;8.55;;;;;;;;;;4950451;28;20142;-64
2022/03/06 07:45:06;;;;;;;16.55;8.05;;;;;;;;;;4950537;28;20048;-64
2022/03/06 07:47:32;;;;;;;12.93;8.82;;;;;;;;;;4950089;28;20059;-64
2022/03/06 07:49:58;;;;;;;14.70;9.02;;;;;;;;;;4950151;28;20056;-64
2022/03/06 07:52:25;;;;;;;15.68;8.00;;;;;;;;;;4950265;28;20083;-64
2022/03/06 07:54:51;;;;;;;14.30;7.68;;;;;;;;;;4950296;28;20059;-64
2022/03/06 07:57:17;;;;;;;12.40;7.32;;;;;;;;;;4950515;28;20213;-64
2022/03/06 07:59:44;;;;;;;17.52;10.07;;;;;;;;;;4950141;28;20079;-64
2022/03/06 08:02:10;;;;;;;13.82;7.20;;;;;;;;;;4949890;28;20066;-64
2022/03/06 08:04:37;;;;;;;13.75;6.78;;;;;;;;;;4950001;28;20051;-64
2022/03/06 08:07:05;;;;;;;13.80;6.88;;;;;;;;;;4950125;28;20552;-64
2022/03/06 08:09:31;;;;;;;12.38;6.97;;;;;;;;;;4950093;28;20059;-64
2022/03/06 08:11:57;;;;;;;14.57;6.53;;;;;;;;;;4950707;28;20066;-64
2022/03/06 08:14:23;;;;;;;10.98;6.65;;;;;;;;;;4950034;28;20064;-64
2022/03/06 08:16:50;;;;;;;9.30;5.75;;;;;;;;;;4949466;28;20051;-64
2022/03/06 08:19:16;;;;;;;21.23;5.43;;;;;;;;;;4949258;28;20056;-64
2022/03/06 08:21:42;;;;;;;13.05;5.82;;;;;;;;;;4950054;28;20490;-64
2022/03/06 08:24:09;;;;;;;10.63;4.82;;;;;;;;;;4949777;28;20973;-64
2022/03/06 08:26:35;;;;;;;11.68;5.38;;;;;;;;;;4949933;28;20060;-64
2022/03/06 08:29:01;;;;;;;10.13;5.47;;;;;;;;;;4950075;28;20055;-64
2022/03/06 08:31:28;;;;;;;10.27;5.03;;;;;;;;;;4949661;28;20056;-64
2022/03/06 08:33:54;;;;;;;7.90;3.78;;;;;;;;;;4949618;28;20115;-64
2022/03/06 08:36:20;;;;;;;9.70;3.97;;;;;;;;;;4949414;28;20520;-64
2022/03/06 08:38:47;;;;;;;8.43;4.15;;;;;;;;;;4949567;28;20558;-65
2022/03/06 08:41:13;;;;;;;8.35;4.28;;;;;;;;;;4949189;28;20529;-64
2022/03/06 08:43:39;;;;;;;9.93;4.10;;;;;;;;;;4949559;28;20056;-64
2022/03/06 08:46:06;;;;;;;8.43;4.25;;;;;;;;;;4950188;28;20051;-66
2022/03/06 08:48:32;;;;;;;8.15;3.75;;;;;;;;;;4950059;28;20076;-64
2022/03/06 08:51:02;;;;;;;11.70;4.63;;;;;;;;;;4949092;28;20056;-65
2022/03/06 08:53:28;;;;;;;10.88;3.83;;;;;;;;;;4949450;28;20059;-64
2022/03/06 08:55:54;;;;;;;5.88;2.95;;;;;;;;;;4949250;28;20054;-64
2022/03/06 08:58:20;;;;;;;10.60;3.58;;;;;;;;;;4949657;28;20051;-64
2022/03/06 09:00:47;;;;;;;6.65;3.25;;;;;;;;;;4949603;28;20084;-64
2022/03/06 09:03:13;;;;;;;11.32;3.40;;;;;;;;;;4948948;28;20525;-64
2022/03/06 09:05:40;;;;;;;9.07;3.58;;;;;;;;;;4948302;28;20103;-64
2022/03/06 09:08:10;;;;;;;8.52;3.05;;;;;;;;;;4949332;28;20060;-64
2022/03/06 09:10:38;;;;;;;4.70;2.47;;;;;;;;;;4948695;28;20107;-64
2022/03/06 09:13:05;;;;;;;6.65;2.90;;;;;;;;;;4949220;28;20087;-64
2022/03/06 09:15:31;;;;;;;7.15;2.97;;;;;;;;;;4949047;28;20537;-64
2022/03/06 09:17:58;;;;;;;7.32;2.88;;;;;;;;;;4949254;28;20058;-64
2022/03/06 09:20:25;;;;;;;6.03;3.05;;;;;;;;;;4948973;28;20549;-64
2022/03/06 09:22:52;;;;;;;6.13;3.10;;;;;;;;;;4948587;28;20178;-64
2022/03/06 09:25:18;;;;;;;6.68;2.65;;;;;;;;;;4948993;28;20557;-64
2022/03/06 09:27:45;;;;;;;6.10;2.78;;;;;;;;;;4948223;28;20560;-65
2022/03/06 09:30:11;;;;;;;9.60;3.17;;;;;;;;;;4948212;28;20052;-65
2022/03/06 09:32:38;;;;;;;7.35;2.90;;;;;;;;;;4948728;28;20503;-64
2022/03/06 09:35:04;;;;;;;6.97;2.72;;;;;;;;;;4949297;28;20138;-64
2022/03/06 09:37:33;;;;;;;7.28;2.95;;;;;;;;;;4948822;28;20047;-65
2022/03/06 09:40:00;;;;;;;8.38;2.70;;;;;;;;;;4948848;28;20487;-64
2022/03/06 09:42:26;;;;;;;6.93;2.67;;;;;;;;;;4948773;28;20082;-64
2022/03/06 09:44:53;;;;;;;6.00;2.53;;;;;;;;;;4948403;28;20062;-64
2022/03/06 09:47:19;;;;;;;8.25;2.97;;;;;;;;;;4948527;28;20507;-64
2022/03/06 09:49:46;;;;;;;7.43;2.47;;;;;;;;;;4948089;28;20059;-65
2022/03/06 09:52:12;;;;;;;6.50;3.10;;;;;;;;;;4948957;28;20062;-64
2022/03/06 09:54:42;;;;;;;6.07;2.40;;;;;;;;;;4948922;28;20052;-64
2022/03/06 09:57:08;;;;;;;5.15;2.05;;;;;;;;;;4948701;28;20437;-64
2022/03/06 09:59:35;;;;;;;9.20;2.70;;;;;;;;;;4947890;28;20068;-64
2022/03/06 10:02:02;;;;;;;8.80;3.42;;;;;;;;;;4948213;28;20527;-64
2022/03/06 10:04:30;;;;;;;7.25;2.80;;;;;;;;;;4948617;28;20510;-65
2022/03/06 10:07:06;;;;;;;6.00;3.00;;;;;;;;;;4948609;28;20068;-64
2022/03/06 10:09:49;;;;;;;5.80;2.85;;;;;;;;;;4948128;28;20066;-64
2022/03/06 10:12:29;;;;;;;14.85;3.08;;;;;;;;;;4948005;28;20056;-64
2022/03/06 10:14:57;;;;;;;9.40;3.60;;;;;;;;;;4948144;28;20497;-64
2022/03/06 10:17:24;;;;;;;7.38;3.45;;;;;;;;;;4948565;28;20138;-64
2022/03/06 10:20:00;;;;;;;7.25;3.25;;;;;;;;;;4948308;28;20059;-64
2022/03/06 10:22:28;;;;;;;5.60;2.50;;;;;;;;;;4947787;28;20055;-64
2022/03/06 10:24:54;;;;;;;7.55;3.70;;;;;;;;;;4948196;28;20056;-64
2022/03/06 10:27:39;;;;;;;7.65;3.63;;;;;;;;;;4948419;28;20062;-64
2022/03/06 10:30:26;;;;;;;8.23;4.07;;;;;;;;;;4948159;28;20062;-64
2022/03/06 10:32:53;;;;;;;9.02;3.75;;;;;;;;;;4947938;28;20047;-64
2022/03/06 10:35:32;;;;;;;7.22;3.10;;;;;;;;;;4947676;28;20062;-64
2022/03/06 10:37:59;;;;;;;7.10;3.20;;;;;;;;;;4949153;28;20051;-64
2022/03/06 10:40:32;;;;;;;8.07;3.65;;;;;;;;;;4948182;28;20155;-64
2022/03/06 10:42:59;;;;;;;12.25;4.82;;;;;;;;;;4950064;28;20060;-64
2022/03/06 10:45:25;;;;;;;6.45;2.92;;;;;;;;;;4951474;28;20091;-64
2022/03/06 10:47:52;;;;;;;7.10;3.25;;;;;;;;;;4950637;28;20083;-64
2022/03/06 10:50:24;;;;;;;8.00;3.92;;;;;;;;;;4951191;28;20608;-64
2022/03/06 10:52:56;;;;;;;8.65;4.07;;;;;;;;;;4950745;28;20491;-64
2022/03/06 10:55:33;;;;;;;9.63;3.65;;;;;;;;;;4951705;28;20158;-64
2022/03/06 10:57:59;;;;;;;7.80;3.92;;;;;;;;;;4951279;28;20524;-64
2022/03/06 11:00:27;;;;;;;6.68;3.70;;;;;;;;;;4951404;28;20060;-64
2022/03/06 11:02:55;;;;;;;8.93;3.38;;;;;;;;;;4951368;28;20061;-64
2022/03/06 11:05:22;;;;;;;7.90;3.58;;;;;;;;;;4950482;28;20079;-64
2022/03/06 11:07:49;;;;;;;7.43;4.00;;;;;;;;;;4950861;28;20268;-64
2022/03/06 11:10:15;;;;;;;7.97;3.97;;;;;;;;;;4950842;28;20062;-64
2022/03/06 11:12:42;;;;;;;9.52;3.92;;;;;;;;;;4950227;28;20441;-64
2022/03/06 11:15:08;;;;;;;7.80;4.22;;;;;;;;;;4951431;28;20064;-63
2022/03/06 11:17:35;;;;;;;10.65;3.88;;;;;;;;;;4950702;28;20051;-64
2022/03/06 11:20:02;;;;;;;9.43;4.15;;;;;;;;;;4950590;28;20089;-64
2022/03/06 11:22:36;;;;;;;8.88;3.78;;;;;;;;;;4951038;28;20066;-64
2022/03/06 11:25:08;;;;;;;6.95;4.03;;;;;;;;;;4950610;28;20094;-64
2022/03/06 11:27:42;;;;;;;9.20;3.60;;;;;;;;;;4950568;28;20537;-63
2022/03/06 11:30:29;;;;;;;7.88;4.22;;;;;;;;;;4950647;28;20059;-64
2022/03/06 11:32:59;;;;;;;8.15;4.03;;;;;;;;;;4950591;28;20062;-64
2022/03/06 11:35:30;;;;;;;8.60;4.35;;;;;;;;;;4951000;28;20111;-64
2022/03/06 11:37:57;;;;;;;12.00;4.38;;;;;;;;;;4950181;28;20060;-63
2022/03/06 11:40:33;;;;;;;10.38;4.25;;;;;;;;;;4950931;28;20056;-64
2022/03/06 11:43:00;;;;;;;9.98;3.90;;;;;;;;;;4950884;28;20066;-64
2022/03/06 11:45:44;;;;;;;7.43;3.80;;;;;;;;;;4950883;28;20052;-64
2022/03/06 11:48:31;;;;;;;10.35;4.40;;;;;;;;;;4949626;28;20147;-65
2022/03/06 11:51:12;;;;;;;9.40;3.60;;;;;;;;;;4929481;28;20522;-66
2022/03/06 11:54:01;;;;;;;9.10;5.00;;;;;;;;;;4948996;28;20542;-64
2022/03/06 11:56:31;;;;;;;7.57;3.97;;;;;;;;;;4943491;28;20055;-64
2022/03/06 11:59:00;;;;;;;9.05;4.15;;;;;;;;;;4950178;28;20545;-64
2022/03/06 12:01:27;;;;;;;9.35;4.55;;;;;;;;;;4950471;28;20190;-64
2022/03/06 12:04:10;;;;;;;8.93;4.22;;;;;;;;;;4950351;28;20064;-64
2022/03/06 12:06:44;;;;;;;8.52;4.68;;;;;;;;;;4949628;28;20083;-64
2022/03/06 12:09:11;;;;;;;9.38;4.45;;;;;;;;;;4949810;28;20143;-64
2022/03/06 12:11:37;;;;;;;9.07;4.60;;;;;;;;;;4950173;28;20550;-64
2022/03/06 12:14:12;;;;;;;10.63;5.10;;;;;;;;;;4949802;28;20147;-64
2022/03/06 12:16:58;;;;;;;8.55;4.13;;;;;;;;;;4949798;28;20530;-64
2022/03/06 12:19:25;;;;;;;11.20;4.82;;;;;;;;;;4949725;28;20059;-64
2022/03/06 12:21:51;;;;;;;8.52;4.35;;;;;;;;;;4949291;28;20062;-64
2022/03/06 12:24:27;;;;;;;8.98;4.75;;;;;;;;;;4949989;28;20423;-64
2022/03/06 12:26:54;;;;;;;9.23;4.32;;;;;;;;;;4950523;28;20056;-64
2022/03/06 12:29:39;;;;;;;9.30;4.60;;;;;;;;;;4950785;28;20083;-64
2022/03/06 12:32:24;;;;;;;11.05;4.93;;;;;;;;;;4949041;28;20086;-64
2022/03/06 12:34:54;;;;;;;8.20;4.10;;;;;;;;;;4948671;28;20062;-64
2022/03/06 12:37:24;;;;;;;8.32;3.80;;;;;;;;;;4949429;28;20062;-65
2022/03/06 12:39:50;;;;;;;9.40;4.30;;;;;;;;;;4949673;28;20066;-64
2022/03/06 12:42:24;;;;;;;9.55;3.90;;;;;;;;;;4949444;28;20062;-64
2022/03/06 12:44:52;;;;;;;6.85;3.75;;;;;;;;;;4948903;28;20544;-64
2022/03/06 12:47:19;;;;;;;;;;;;;;;;;;4950333;28;20062;-64
2022/03/06 12:49:49;;;;;;;7.13;3.53;;;;;;;;;;4948141;28;45600;-64
2022/03/06 12:52:19;;;;;;;9.07;4.18;;;;;;;;;;4949863;28;20566;-63
2022/03/06 12:54:46;;;;;;;9.73;3.95;;;;;;;;;;4948759;28;20869;-65
2022/03/06 12:57:13;;;;;;;8.98;3.75;;;;;;;;;;4949154;28;20066;-66
2022/03/06 12:59:43;;;;;;;7.20;3.53;;;;;;;;;;4949326;28;20062;-64
2022/03/06 13:02:10;;;;;;;7.78;3.70;;;;;;;;;;4949709;28;20059;-64
2022/03/06 13:04:37;;;;;;;7.70;3.83;;;;;;;;;;4948586;28;20059;-64
2022/03/06 13:07:08;;;;;;;8.48;3.72;;;;;;;;;;4949743;28;20056;-64
2022/03/06 13:09:34;;;;;;;7.30;3.30;;;;;;;;;;4949200;28;20177;-65
2022/03/06 13:12:02;;;;;;;7.03;3.35;;;;;;;;;;4948515;28;20064;-64
2022/03/06 13:14:36;;;;;;;6.75;3.30;;;;;;;;;;4949796;28;20073;-64
2022/03/06 13:17:04;;;;;;;6.07;2.65;;;;;;;;;;4948907;28;20119;-64
2022/03/06 13:19:37;;;;;;;6.90;3.10;;;;;;;;;;4948298;28;20063;-64
2022/03/06 13:22:08;;;;;;;8.88;3.03;;;;;;;;;;4948840;28;20721;-64
2022/03/06 13:24:38;;;;;;;5.68;2.30;;;;;;;;;;4948864;28;20158;-65
2022/03/06 13:27:05;;;;;;;6.32;2.65;;;;;;;;;;4948712;28;20061;-64
2022/03/06 13:29:31;;;;;;;4.45;2.20;;;;;;;;;;4948778;28;20074;-65
2022/03/06 13:31:58;;;;;;;5.35;2.60;;;;;;;;;;4948533;28;20056;-65
2022/03/06 13:34:26;;;;;;;4.70;1.92;;;;;;;;;;4948979;28;20563;-64
2022/03/06 13:36:52;;;;;;;4.63;2.10;;;;;;;;;;4949310;28;20529;-65
2022/03/06 13:39:19;;;;;;;5.05;1.63;;;;;;;;;;4948827;28;20060;-64
2022/03/06 13:41:53;;;;;;;5.05;1.83;;;;;;;;;;4947885;28;20056;-64
2022/03/06 13:44:20;;;;;;;5.50;2.05;;;;;;;;;;4948449;28;20139;-64
2022/03/06 13:46:47;;;;;;;7.57;2.13;;;;;;;;;;4948637;28;20482;-64
2022/03/06 13:49:14;;;;;;;4.43;1.73;;;;;;;;;;4949084;28;20089;-65
2022/03/06 13:51:41;;;;;;;4.90;2.13;;;;;;;;;;4948463;28;20105;-64
2022/03/06 13:54:08;;;;;;;4.75;1.95;;;;;;;;;;4948027;28;20058;-65
2022/03/06 13:56:39;;;;;;;4.55;1.90;;;;;;;;;;4948664;28;20163;-64
2022/03/06 13:59:10;;;;;;;6.45;2.00;;;;;;;;;;4948387;28;20142;-64
2022/03/06 14:01:37;;;;;;;3.17;1.38;;;;;;;;;;4948330;28;20062;-64
2022/03/06 14:04:09;;;;;;;4.13;2.03;;;;;;;;;;4948062;28;20087;-64
2022/03/06 14:06:40;;;;;;;5.30;1.92;;;;;;;;;;4948575;28;20107;-65
2022/03/06 14:09:23;;;;;;;6.13;1.70;;;;;;;;;;4948609;28;20060;-64
2022/03/06 14:11:51;;;;;;;5.07;1.60;;;;;;;;;;4947892;28;20489;-65
2022/03/06 14:14:18;;;;;;;3.22;1.70;;;;;;;;;;4948265;28;21015;-64
2022/03/06 14:16:44;;;;;;;5.25;2.10;;;;;;;;;;4949386;28;20075;-64
2022/03/06 14:19:15;;;;;;;7.70;2.33;;;;;;;;;;4952257;28;20051;-64
2022/03/06 14:21:42;;;;;;;5.70;2.03;;;;;;;;;;4950798;28;20605;-64
2022/03/06 14:24:09;;;;;;;5.82;2.10;;;;;;;;;;4951374;28;20503;-64
2022/03/06 14:26:35;;;;;;;5.28;1.67;;;;;;;;;;4951750;28;20143;-65
2022/03/06 14:29:09;;;;;;;4.68;1.60;;;;;;;;;;4951500;28;20063;-64
2022/03/06 14:31:53;;;;;;;5.82;1.95;;;;;;;;;;4951252;28;20066;-64